^^
Station Historical Data
Daily Summary for April 21, 2017 Units:  English    Metric   Both
« Previous Day
Next Day »
Daily Weekly Monthly Yearly Custom
  High: Low: Average:
Temperature: 59.3 °F 49.7 °F 54.5 °F
Dew Point: 53.9 °F 47.8 °F 51.3 °F
Humidity: 93 % 82 % 89 %
Wind Speed: 7.5 mph 0.0 mph 1.8 mph
Wind Gust: 10.4 mph - -
Wind:- - ENE
Pressure: 29.99 in 29.85 in -
Precipitation: 0.55 in    
Historical Graphs
 
 
Tabular Data for April 21, 2017
Time Temperature Dew Point Pressure Wind Wind Speed Wind Gust Humidity Rainfall Rate (Hourly) solar Conditions
00:04 56.6 °F 51.8 °F 29.99 in ESE 1.0 mph 5.0 mph 84 % 0.00 in 0.0 W/m2 RA
00:09 56.4 °F 51.6 °F 29.99 in Calm   4.0 mph 84 % 0.00 in 0.0 W/m2 CLR
00:14 56.3 °F 51.8 °F 29.98 in East 1.2 mph 1.2 mph 85 % 0.01 in 0.0 W/m2 CLR
00:19 56.1 °F 51.7 °F 29.98 in Calm   1.2 mph 85 % 0.01 in 0.0 W/m2 CLR
00:24 56.0 °F 51.6 °F 29.97 in ESE 1.9 mph 4.6 mph 85 % 0.00 in 0.0 W/m2 CLR
00:29 55.9 °F 51.5 °F 29.98 in ENE 2.5 mph 3.5 mph 85 % 0.00 in 0.0 W/m2 CLR
00:39 55.7 °F 51.6 °F 29.97 in ENE 1.9 mph 5.8 mph 86 % 0.01 in 0.0 W/m2 RA
00:45 55.7 °F 51.6 °F 29.97 in Calm     86 % 0.02 in 0.0 W/m2 RA
00:49 55.5 °F 51.4 °F 29.97 in Calm   2.3 mph 86 % 0.03 in 0.0 W/m2 RA
00:54 55.5 °F 51.7 °F 29.97 in ENE 0.5 mph 3.5 mph 87 % 0.03 in 0.0 W/m2 RA
00:59 55.5 °F 51.7 °F 29.97 in North 1.9 mph 3.5 mph 87 % 0.01 in 0.0 W/m2 RA
01:10 54.9 °F 51.4 °F 29.95 in ENE 2.1 mph 3.5 mph 88 % 0.30 in 0.0 W/m2 RA
01:14 54.6 °F 51.4 °F 29.94 in East 0.1 mph 3.5 mph 89 % 0.31 in 0.0 W/m2 RA
01:20 54.5 °F 51.3 °F 29.94 in East 0.9 mph 2.3 mph 89 % 0.31 in 0.0 W/m2 RA
01:24 54.5 °F 51.6 °F 29.94 in ENE 1.2 mph 2.3 mph 90 % 0.31 in 0.0 W/m2
01:29 54.4 °F 51.5 °F 29.94 in East 2.1 mph 5.8 mph 90 % 0.31 in 0.0 W/m2
01:34 54.3 °F 51.4 °F 29.94 in ESE 2.8 mph 4.0 mph 90 % 0.30 in 0.0 W/m2
01:39 54.2 °F 51.3 °F 29.94 in ESE 1.5 mph 5.0 mph 90 % 0.30 in 0.0 W/m2
01:44 54.2 °F 51.3 °F 29.94 in ESE 1.9 mph 3.0 mph 90 % 0.29 in 0.0 W/m2
01:49 54.0 °F 51.1 °F 29.94 in East 2.4 mph 3.5 mph 90 % 0.28 in 0.0 W/m2
01:54 53.9 °F 51.0 °F 29.93 in SE 1.3 mph 2.3 mph 90 % 0.28 in 0.0 W/m2
02:00 54.0 °F 51.4 °F 29.93 in SE 0.2 mph 1.0 mph 91 % 0.25 in 0.0 W/m2
02:05 53.8 °F 51.0 °F 29.93 in ESE 5.0 mph 8.0 mph 90 % 0.00 in 0.0 W/m2
02:10 53.8 °F 51.2 °F 29.92 in ESE 2.0 mph 6.0 mph 91 % 0.00 in 0.0 W/m2
02:15 53.7 °F 51.1 °F 29.92 in ESE 2.3 mph 4.0 mph 91 % 0.00 in 0.0 W/m2 CLR
02:20 53.7 °F 51.1 °F 29.93 in Calm   5.0 mph 91 % 0.00 in 0.0 W/m2 CLR
02:25 53.9 °F 51.3 °F 29.93 in East 1.0 mph 3.0 mph 91 % 0.00 in 0.0 W/m2 CLR
02:30 53.8 °F 51.2 °F 29.93 in ENE 1.1 mph 2.3 mph 91 % 0.00 in 0.0 W/m2 CLR
02:35 53.8 °F 51.2 °F 29.93 in Calm   2.0 mph 91 % 0.00 in 0.0 W/m2 CLR
02:40 53.9 °F 51.3 °F 29.93 in ENE 1.0 mph 2.0 mph 91 % 0.00 in 0.0 W/m2 CLR
02:45 53.9 °F 51.3 °F 29.93 in NE 2.4 mph 3.5 mph 91 % 0.00 in 0.0 W/m2 CLR
02:50 53.9 °F 51.3 °F 29.92 in ENE 1.6 mph 2.3 mph 91 % 0.00 in 0.0 W/m2 CLR
02:55 53.8 °F 51.2 °F 29.92 in East 2.2 mph 3.5 mph 91 % 0.00 in 0.0 W/m2 CLR
03:00 53.8 °F 51.2 °F 29.92 in ESE 2.1 mph 2.3 mph 91 % 0.00 in 0.0 W/m2 CLR
03:05 53.8 °F 51.2 °F 29.93 in SE 0.7 mph 2.3 mph 91 % 0.00 in 0.0 W/m2 CLR
03:10 53.8 °F 51.2 °F 29.93 in Calm     91 % 0.00 in 0.0 W/m2 CLR
03:15 53.9 °F 51.3 °F 29.92 in Calm     91 % 0.00 in 0.0 W/m2 CLR
03:20 53.9 °F 51.3 °F 29.93 in Calm     91 % 0.00 in 0.0 W/m2 CLR
03:25 53.9 °F 51.3 °F 29.92 in ESE 1.5 mph 3.5 mph 91 % 0.00 in 0.0 W/m2 CLR
03:30 53.9 °F 51.3 °F 29.92 in ESE 0.5 mph 3.5 mph 91 % 0.00 in 0.0 W/m2 CLR
03:35 53.8 °F 51.2 °F 29.93 in ESE 0.3 mph 2.3 mph 91 % 0.00 in 0.0 W/m2 CLR
03:40 53.8 °F 51.2 °F 29.93 in ESE 1.3 mph 2.3 mph 91 % 0.00 in 0.0 W/m2 CLR
03:45 53.9 °F 51.3 °F 29.93 in ESE 1.1 mph 2.3 mph 91 % 0.00 in 0.0 W/m2 CLR
03:50 53.8 °F 51.2 °F 29.93 in Calm     91 % 0.00 in 0.0 W/m2 CLR
03:55 53.9 °F 51.3 °F 29.93 in Calm     91 % 0.00 in 0.0 W/m2 CLR
04:00 53.8 °F 51.2 °F 29.93 in ESE 0.3 mph 2.3 mph 91 % 0.00 in 0.0 W/m2 CLR
04:05 53.8 °F 51.2 °F 29.93 in Calm     91 % 0.00 in 0.0 W/m2 CLR
04:10 53.7 °F 51.1 °F 29.93 in Calm     91 % 0.00 in 0.0 W/m2 CLR
04:15 53.7 °F 51.1 °F 29.93 in Calm     91 % 0.00 in 0.0 W/m2 CLR
04:20 53.7 °F 51.1 °F 29.93 in ESE 0.8 mph 2.3 mph 91 % 0.00 in 0.0 W/m2 CLR
04:25 53.7 °F 51.1 °F 29.93 in ENE 0.1 mph 2.0 mph 91 % 0.00 in 0.0 W/m2 CLR
04:30 53.8 °F 51.2 °F 29.94 in Calm     91 % 0.00 in 0.0 W/m2 CLR
04:35 53.7 °F 51.1 °F 29.93 in ENE 1.6 mph 3.0 mph 91 % 0.00 in 0.0 W/m2 CLR
04:40 53.6 °F 51.0 °F 29.93 in East 1.7 mph 3.5 mph 91 % 0.01 in 0.0 W/m2 RA
04:45 53.6 °F 51.0 °F 29.93 in East 1.8 mph 4.0 mph 91 % 0.01 in 0.0 W/m2 RA
04:50 53.5 °F 50.9 °F 29.93 in East 1.6 mph 3.5 mph 91 % 0.01 in 0.0 W/m2
04:55 53.4 °F 50.8 °F 29.93 in East 2.4 mph 4.6 mph 91 % 0.01 in 0.0 W/m2
05:00 53.3 °F 50.7 °F 29.93 in SE 2.5 mph 3.5 mph 91 % 0.02 in 0.0 W/m2 RA
05:05 53.2 °F 50.6 °F 29.93 in ESE 2.4 mph 3.5 mph 91 % 0.02 in 0.0 W/m2 RA
05:10 53.2 °F 50.6 °F 29.93 in ESE 1.4 mph 2.3 mph 91 % 0.02 in 0.0 W/m2
05:15 53.1 °F 50.5 °F 29.93 in ESE 2.4 mph 3.5 mph 91 % 0.02 in 0.0 W/m2
05:20 53.0 °F 50.7 °F 29.93 in ESE 2.0 mph 3.5 mph 92 % 0.02 in 0.0 W/m2
05:25 53.1 °F 50.8 °F 29.93 in ESE 1.3 mph 2.3 mph 92 % 0.02 in 0.0 W/m2
05:30 53.0 °F 50.7 °F 29.93 in East 1.6 mph 3.5 mph 92 % 0.02 in 0.0 W/m2
05:35 52.9 °F 50.6 °F 29.93 in ENE 1.9 mph 4.0 mph 92 % 0.02 in 0.0 W/m2
05:40 52.7 °F 50.4 °F 29.93 in East 1.6 mph 2.3 mph 92 % 0.01 in 0.0 W/m2
05:45 52.7 °F 50.4 °F 29.95 in NNE 4.9 mph 5.8 mph 92 % 0.01 in 0.0 W/m2
05:50 52.7 °F 50.4 °F 29.97 in NNE 6.1 mph 8.1 mph 92 % 0.01 in 0.0 W/m2
05:55 52.7 °F 50.4 °F 29.97 in North 7.2 mph 9.2 mph 92 % 0.02 in 0.0 W/m2 RA
06:00 52.7 °F 50.4 °F 29.97 in NNE 6.2 mph 9.2 mph 92 % 0.02 in 0.0 W/m2 RA
06:05 52.7 °F 50.4 °F 29.96 in NNE 5.2 mph 7.0 mph 92 % 0.03 in 0.0 W/m2 RA
06:10 52.4 °F 50.1 °F 29.97 in NE 7.5 mph 10.4 mph 92 % 0.03 in 0.0 W/m2 RA
06:15 52.2 °F 49.9 °F 29.97 in ENE 4.1 mph 5.8 mph 92 % 0.03 in 0.0 W/m2
06:20 51.9 °F 49.6 °F 29.96 in NE 3.5 mph 3.5 mph 92 % 0.04 in 0.0 W/m2 RA
06:25 51.7 °F 49.5 °F 29.96 in ENE 2.8 mph 3.5 mph 92 % 0.10 in 0.0 W/m2 RA
06:30 51.3 °F 49.1 °F 29.96 in East 2.3 mph 4.6 mph 92 % 0.14 in 0.0 W/m2 RA
06:35 51.3 °F 49.1 °F 29.95 in East 2.9 mph 3.5 mph 92 % 0.15 in 0.0 W/m2 RA
06:40 51.2 °F 49.2 °F 29.96 in NE 1.1 mph 3.5 mph 93 % 0.18 in 0.0 W/m2 RA
06:45 51.1 °F 49.1 °F 29.95 in ENE 2.6 mph 4.0 mph 93 % 0.20 in 7.0 W/m2 RA
06:50 51.0 °F 49.0 °F 29.95 in ENE 1.8 mph 3.5 mph 93 % 0.20 in 11.0 W/m2 RA
06:55 50.9 °F 48.9 °F 29.95 in ESE 2.0 mph 3.5 mph 93 % 0.19 in 18.0 W/m2
07:00 50.8 °F 48.8 °F 29.95 in East 2.1 mph 4.0 mph 93 % 0.19 in 23.0 W/m2 RA
07:05 50.9 °F 48.9 °F 29.96 in ENE 0.4 mph 2.3 mph 93 % 0.18 in 18.0 W/m2 RA
07:10 50.7 °F 48.7 °F 29.97 in NE 2.6 mph 3.5 mph 93 % 0.18 in 18.0 W/m2
07:15 50.7 °F 48.7 °F 29.96 in East 2.5 mph 3.0 mph 93 % 0.18 in 28.0 W/m2 BKN
07:17 50.6 °F 48.7 °F 29.96 in East 2.5 mph 4.0 mph 93 % 0.18 in 26.0 W/m2 OVC
07:22 50.5 °F 48.6 °F 29.96 in ENE 1.5 mph 2.3 mph 93 % 0.13 in 30.0 W/m2 OVC
07:27 50.6 °F 48.7 °F 29.97 in ESE 0.8 mph 4.0 mph 93 % 0.09 in 32.0 W/m2 OVC
07:32 50.5 °F 48.6 °F 29.97 in NE 1.1 mph 2.3 mph 93 % 0.07 in 23.0 W/m2 OVC
07:37 50.4 °F 48.5 °F 29.97 in East 1.3 mph 2.3 mph 93 % 0.04 in 37.0 W/m2 OVC
07:42 50.3 °F 48.4 °F 29.96 in Calm   2.0 mph 93 % 0.02 in 39.0 W/m2 OVC
07:47 50.4 °F 48.5 °F 29.96 in ENE 2.5 mph 3.5 mph 93 % 0.01 in 42.0 W/m2 OVC
07:52 50.2 °F 48.3 °F 29.97 in NE 0.2 mph 2.0 mph 93 % 0.01 in 44.0 W/m2 OVC
07:57 50.4 °F 48.5 °F 29.97 in ENE 0.8 mph 2.3 mph 93 % 0.01 in 60.0 W/m2 OVC
08:02 50.5 °F 48.6 °F 29.97 in NE 1.4 mph 3.5 mph 93 % 0.00 in 46.0 W/m2 OVC
08:07 50.6 °F 48.7 °F 29.96 in NE 2.0 mph 5.0 mph 93 % 0.00 in 72.0 W/m2 BKN
08:12 50.3 °F 48.4 °F 29.96 in ENE 2.8 mph 3.5 mph 93 % 0.00 in 58.0 W/m2 OVC
08:17 50.1 °F 48.2 °F 29.96 in NE 1.3 mph 2.3 mph 93 % 0.00 in 44.0 W/m2 OVC
08:22 50.2 °F 48.3 °F 29.95 in NE 2.4 mph 4.6 mph 93 % 0.00 in 69.0 W/m2 OVC
08:27 50.1 °F 48.2 °F 29.95 in ENE 0.1 mph 1.2 mph 93 % 0.00 in 28.0 W/m2 OVC
08:32 50.1 °F 48.2 °F 29.95 in NE 1.7 mph 3.0 mph 93 % 0.00 in 86.0 W/m2 OVC
08:37 50.1 °F 48.2 °F 29.95 in ENE 1.2 mph 3.5 mph 93 % 0.00 in 91.0 W/m2 BKN
08:42 50.0 °F 48.1 °F 29.95 in NE 3.1 mph 3.5 mph 93 % 0.00 in 74.0 W/m2 OVC
08:47 49.7 °F 47.8 °F 29.95 in NE 3.4 mph 4.0 mph 93 % 0.00 in 105.0 W/m2 OVC
08:52 50.0 °F 48.1 °F 29.95 in NE 2.4 mph 3.5 mph 93 % 0.00 in 116.0 W/m2 RA
08:57 50.1 °F 48.2 °F 29.95 in ENE 3.7 mph 5.8 mph 93 % 0.00 in 125.0 W/m2 RA
09:02 49.9 °F 48.0 °F 29.95 in NE 2.4 mph 3.5 mph 93 % 0.00 in 118.0 W/m2 BKN
09:07 50.1 °F 48.2 °F 29.95 in NE 2.2 mph 4.0 mph 93 % 0.00 in 121.0 W/m2 BKN
09:12 50.2 °F 48.3 °F 29.94 in NNE 2.8 mph 4.6 mph 93 % 0.00 in 134.0 W/m2 OVC
09:14 50.4 °F 48.5 °F 29.94 in NNE 3.3 mph 5.8 mph 93 % 0.00 in 163.0 W/m2 BKN
09:19 50.1 °F 48.2 °F 29.94 in NE 2.9 mph 3.5 mph 93 % 0.00 in 169.0 W/m2 BKN
09:24 50.2 °F 48.3 °F 29.93 in NE 3.7 mph 5.8 mph 93 % 0.00 in 179.0 W/m2 BKN
09:29 50.3 °F 48.4 °F 29.94 in NE 4.0 mph 8.1 mph 93 % 0.00 in 193.0 W/m2 BKN
09:34 50.5 °F 48.3 °F 29.93 in ENE 2.6 mph 3.5 mph 92 % 0.00 in 221.0 W/m2 BKN
09:39 50.5 °F 48.3 °F 29.94 in East 0.6 mph 2.3 mph 92 % 0.00 in 236.0 W/m2 BKN
09:44 50.9 °F 48.9 °F 29.94 in NE 1.3 mph 2.3 mph 93 % 0.00 in 197.0 W/m2 BKN
09:49 50.8 °F 48.6 °F 29.94 in NE 1.8 mph 2.3 mph 92 % 0.00 in 236.0 W/m2 BKN
09:54 51.0 °F 49.0 °F 29.94 in NNE 3.2 mph 4.6 mph 93 % 0.00 in 125.0 W/m2 BKN
09:59 50.7 °F 48.5 °F 29.94 in NNE 3.3 mph 4.6 mph 92 % 0.00 in 130.0 W/m2 BKN
10:04 50.9 °F 48.7 °F 29.94 in NNE 3.7 mph 5.8 mph 92 % 0.00 in 200.0 W/m2 BKN
10:09 51.1 °F 48.9 °F 29.95 in NNE 2.0 mph 3.5 mph 92 % 0.00 in 113.0 W/m2 BKN
10:14 50.9 °F 48.7 °F 29.94 in NNE 2.6 mph 3.5 mph 92 % 0.00 in 257.0 W/m2 BKN
10:19 51.2 °F 49.0 °F 29.94 in NNE 2.9 mph 5.8 mph 92 % 0.00 in 267.0 W/m2 BKN
10:24 51.3 °F 49.1 °F 29.93 in NE 2.2 mph 3.5 mph 92 % 0.00 in 190.0 W/m2 OVC
10:29 51.5 °F 49.3 °F 29.94 in NNE 3.2 mph 4.6 mph 92 % 0.00 in 267.0 W/m2 OVC
10:34 51.3 °F 48.8 °F 29.94 in NNE 2.4 mph 3.5 mph 91 % 0.00 in 146.0 W/m2 BKN
10:39 51.2 °F 49.0 °F 29.94 in NNE 4.0 mph 5.8 mph 92 % 0.00 in 88.0 W/m2 OVC
10:44 51.2 °F 48.7 °F 29.94 in NNE 0.4 mph 3.5 mph 91 % 0.00 in 123.0 W/m2 OVC
10:49 51.5 °F 49.0 °F 29.94 in NNE 4.1 mph 6.9 mph 91 % 0.00 in 199.0 W/m2 BKN
10:54 51.4 °F 48.9 °F 29.94 in NNE 3.8 mph 4.6 mph 91 % 0.00 in 197.0 W/m2 OVC
10:59 51.3 °F 48.8 °F 29.93 in NNE 1.0 mph 2.3 mph 91 % 0.00 in 232.0 W/m2 BKN
11:04 51.6 °F 49.4 °F 29.91 in NNE 1.6 mph 3.5 mph 92 % 0.00 in 264.0 W/m2 BKN
11:09 51.7 °F 49.2 °F 29.92 in NE 0.1 mph 3.5 mph 91 % 0.00 in 244.0 W/m2 BKN
11:14 51.9 °F 49.4 °F 29.92 in NE 1.7 mph 3.5 mph 91 % 0.00 in 257.0 W/m2 BKN
11:19 52.1 °F 49.6 °F 29.92 in NE 1.2 mph 2.0 mph 91 % 0.00 in 258.0 W/m2 BKN
11:24 52.2 °F 49.7 °F 29.92 in Calm     91 % 0.00 in 232.0 W/m2 BKN
11:29 52.2 °F 49.7 °F 29.92 in NE 1.7 mph 3.5 mph 91 % 0.00 in 211.0 W/m2 OVC
11:34 52.5 °F 49.9 °F 29.92 in Calm     91 % 0.00 in 213.0 W/m2 OVC
11:39 52.6 °F 50.0 °F 29.91 in NE 2.4 mph 3.5 mph 91 % 0.00 in 304.0 W/m2 BKN
11:44 52.7 °F 49.8 °F 29.91 in Calm     90 % 0.00 in 285.0 W/m2 BKN
11:49 52.8 °F 49.9 °F 29.92 in NE 1.7 mph 3.5 mph 90 % 0.00 in 264.0 W/m2 BKN
11:54 52.7 °F 49.8 °F 29.92 in NE 3.2 mph 4.0 mph 90 % 0.00 in 253.0 W/m2 BKN
11:59 53.0 °F 50.1 °F 29.92 in NNE 1.4 mph 3.5 mph 90 % 0.00 in 207.0 W/m2 OVC
12:04 53.0 °F 50.1 °F 29.92 in NNE 1.9 mph 3.0 mph 90 % 0.00 in 225.0 W/m2 OVC
12:09 52.9 °F 50.0 °F 29.92 in Calm   2.3 mph 90 % 0.00 in 313.0 W/m2 BKN
12:14 53.2 °F 50.0 °F 29.92 in NE 1.2 mph 3.5 mph 89 % 0.00 in 199.0 W/m2 OVC
12:19 53.7 °F 50.8 °F 29.92 in NE 2.2 mph 3.5 mph 90 % 0.00 in 156.0 W/m2 BKN
12:24 53.4 °F 50.2 °F 29.91 in Calm   1.2 mph 89 % 0.00 in 322.0 W/m2 BKN
12:29 53.6 °F 50.4 °F 29.92 in ENE 2.5 mph 3.5 mph 89 % 0.00 in 325.0 W/m2 BKN
12:34 54.4 °F 51.2 °F 29.92 in NNE 2.3 mph 3.5 mph 89 % 0.00 in 260.0 W/m2 BKN
12:39 54.1 °F 50.9 °F 29.92 in NNE 0.5 mph 2.0 mph 89 % 0.00 in 243.0 W/m2 BKN
12:45 54.3 °F 51.1 °F 29.91 in NNE 5.2 mph 6.0 mph 89 % 0.00 in 244.0 W/m2 BKN
12:50 54.4 °F 51.2 °F 29.91 in NNE 3.4 mph 3.5 mph 89 % 0.00 in 178.0 W/m2 OVC
12:55 54.5 °F 51.0 °F 29.92 in NNE 1.4 mph 2.3 mph 88 % 0.00 in 167.0 W/m2 BKN
13:00 54.6 °F 51.1 °F 29.91 in NNE 3.8 mph 5.8 mph 88 % 0.00 in 309.0 W/m2 OVC
13:05 54.8 °F 51.3 °F 29.91 in NNE 2.0 mph 4.6 mph 88 % 0.00 in 357.0 W/m2 BKN
13:10 55.5 °F 52.0 °F 29.91 in NNE 3.5 mph 5.8 mph 88 % 0.00 in 336.0 W/m2 BKN
13:15 55.3 °F 51.5 °F 29.91 in North 4.6 mph 7.0 mph 87 % 0.00 in 262.0 W/m2 BKN
13:20 55.5 °F 51.7 °F 29.91 in NNE 6.3 mph 8.1 mph 87 % 0.00 in 265.0 W/m2 BKN
13:25 55.4 °F 51.6 °F 29.91 in NNE 3.7 mph 5.0 mph 87 % 0.00 in 253.0 W/m2 BKN
13:30 55.4 °F 51.6 °F 29.91 in NNE 2.8 mph 3.5 mph 87 % 0.00 in 281.0 W/m2 BKN
13:35 55.3 °F 51.5 °F 29.90 in North 3.8 mph 8.0 mph 87 % 0.00 in 272.0 W/m2 BKN
13:40 55.7 °F 51.9 °F 29.90 in NNE 3.4 mph 3.5 mph 87 % 0.00 in 283.0 W/m2 BKN
13:45 56.1 °F 52.0 °F 29.90 in NE 3.1 mph 4.6 mph 86 % 0.00 in 302.0 W/m2 BKN
13:50 55.9 °F 51.8 °F 29.90 in NNE 2.2 mph 4.0 mph 86 % 0.00 in 279.0 W/m2 BKN
13:55 56.2 °F 52.1 °F 29.90 in NNE 4.8 mph 6.9 mph 86 % 0.00 in 283.0 W/m2 BKN
14:00 56.0 °F 51.9 °F 29.90 in NE 2.2 mph 6.0 mph 86 % 0.00 in 197.0 W/m2 OVC
14:05 56.0 °F 51.9 °F 29.90 in ENE 1.9 mph 3.5 mph 86 % 0.00 in 262.0 W/m2 BKN
14:10 56.2 °F 52.1 °F 29.89 in NNE 2.5 mph 4.6 mph 86 % 0.00 in 397.0 W/m2 BKN
14:15 56.6 °F 52.1 °F 29.89 in ENE 2.8 mph 3.5 mph 85 % 0.00 in 394.0 W/m2 BKN
14:20 56.9 °F 52.4 °F 29.89 in NE 2.8 mph 3.5 mph 85 % 0.00 in 311.0 W/m2 BKN
14:25 56.8 °F 52.3 °F 29.89 in East 1.9 mph 3.5 mph 85 % 0.00 in 294.0 W/m2 BKN
14:30 57.1 °F 52.6 °F 29.89 in East 2.7 mph 3.5 mph 85 % 0.00 in 411.0 W/m2 BKN
14:35 57.7 °F 53.5 °F 29.89 in ESE 2.4 mph 4.0 mph 86 % 0.00 in 301.0 W/m2 BKN
14:40 57.7 °F 52.9 °F 29.89 in ENE 2.0 mph 3.5 mph 84 % 0.00 in 216.0 W/m2 BKN
14:45 57.4 °F 52.3 °F 29.89 in ESE 1.5 mph 4.6 mph 83 % 0.00 in 360.0 W/m2 BKN
14:50 57.5 °F 52.4 °F 29.88 in ESE 0.4 mph 3.5 mph 83 % 0.00 in 362.0 W/m2 BKN
14:55 57.9 °F 53.1 °F 29.88 in ESE 2.0 mph 3.5 mph 84 % 0.00 in 292.0 W/m2 BKN
15:00 58.2 °F 53.1 °F 29.87 in SE 2.1 mph 3.5 mph 83 % 0.00 in 308.0 W/m2 BKN
15:05 58.1 °F 53.0 °F 29.87 in ESE 2.4 mph 3.5 mph 83 % 0.00 in 230.0 W/m2 BKN
15:10 58.2 °F 53.4 °F 29.88 in NE 2.3 mph 4.0 mph 84 % 0.00 in 309.0 W/m2 BKN
15:15 58.2 °F 53.1 °F 29.88 in NE 2.2 mph 3.5 mph 83 % 0.00 in 162.0 W/m2 OVC
15:20 57.9 °F 52.8 °F 29.87 in ENE 1.5 mph 3.5 mph 83 % 0.00 in 334.0 W/m2 BKN
15:25 58.6 °F 53.8 °F 29.87 in ENE 2.0 mph 3.5 mph 84 % 0.00 in 338.0 W/m2 BKN
15:30 58.9 °F 53.7 °F 29.87 in NE 2.6 mph 3.5 mph 83 % 0.00 in 315.0 W/m2 BKN
15:35 59.1 °F 53.9 °F 29.86 in East 1.5 mph 3.5 mph 83 % 0.00 in 294.0 W/m2 SCT
15:40 59.3 °F 53.8 °F 29.86 in East 1.4 mph 3.5 mph 82 % 0.00 in 308.0 W/m2 BKN
15:45 59.2 °F 53.7 °F 29.86 in SSE 2.3 mph 4.0 mph 82 % 0.00 in 315.0 W/m2 BKN
15:50 59.1 °F 53.6 °F 29.86 in NE 1.6 mph 3.5 mph 82 % 0.00 in 227.0 W/m2 BKN
15:55 59.1 °F 53.6 °F 29.86 in ENE 2.7 mph 3.5 mph 82 % 0.00 in 202.0 W/m2 BKN
15:56 59.0 °F 53.5 °F 29.86 in ENE 2.6 mph 3.5 mph 82 % 0.00 in 160.0 W/m2 BKN
16:01 58.7 °F 53.2 °F 29.86 in East 1.4 mph 3.5 mph 82 % 0.00 in 213.0 W/m2 BKN
16:06 58.6 °F 53.5 °F 29.86 in ESE 1.7 mph 2.3 mph 83 % 0.00 in 185.0 W/m2 BKN
16:11 58.5 °F 53.4 °F 29.86 in ESE 0.7 mph 2.3 mph 83 % 0.00 in 125.0 W/m2 OVC
16:16 58.8 °F 53.3 °F 29.86 in SSE 2.6 mph 4.6 mph 82 % 0.00 in 113.0 W/m2 BKN
16:21 58.7 °F 53.5 °F 29.86 in SE 1.2 mph 2.3 mph 83 % 0.00 in 190.0 W/m2 BKN
16:26 59.1 °F 53.9 °F 29.86 in Calm     83 % 0.00 in 139.0 W/m2 BKN
16:31 59.0 °F 53.8 °F 29.86 in SE 2.4 mph 3.5 mph 83 % 0.00 in 127.0 W/m2 BKN
16:36 58.8 °F 53.6 °F 29.86 in SE 1.1 mph 2.3 mph 83 % 0.00 in 234.0 W/m2 SCT
16:41 59.1 °F 53.6 °F 29.85 in SSE 3.0 mph 4.6 mph 82 % 0.00 in 192.0 W/m2 BKN
16:46 59.0 °F 53.8 °F 29.85 in ENE 1.7 mph 3.5 mph 83 % 0.00 in 176.0 W/m2 BKN
16:51 59.0 °F 53.8 °F 29.85 in ENE 1.1 mph 3.0 mph 83 % 0.00 in 174.0 W/m2 BKN
16:56 59.1 °F 53.6 °F 29.86 in NE 2.8 mph 4.0 mph 82 % 0.00 in 172.0 W/m2 BKN
17:01 58.9 °F 53.7 °F 29.86 in NE 3.8 mph 4.6 mph 83 % 0.00 in 132.0 W/m2 BKN
17:07 59.1 °F 53.9 °F 29.86 in NE 2.3 mph 3.0 mph 83 % 0.00 in 134.0 W/m2 BKN
17:12 58.9 °F 53.4 °F 29.86 in NE 3.0 mph 5.0 mph 82 % 0.00 in 113.0 W/m2 OVC
17:17 58.9 °F 53.7 °F 29.87 in NNE 2.9 mph 4.0 mph 83 % 0.00 in 79.0 W/m2 OVC
17:22 58.9 °F 53.7 °F 29.86 in NNE 1.8 mph 3.5 mph 83 % 0.00 in 84.0 W/m2 OVC
17:27 58.7 °F 53.5 °F 29.86 in NNE 3.1 mph 4.0 mph 83 % 0.00 in 86.0 W/m2 OVC
17:32 58.7 °F 53.5 °F 29.87 in NNE 4.2 mph 5.8 mph 83 % 0.00 in 62.0 W/m2 OVC
17:37 58.6 °F 53.5 °F 29.87 in NNE 1.5 mph 3.5 mph 83 % 0.00 in 58.0 W/m2 OVC
17:42 58.7 °F 53.5 °F 29.87 in NE 5.2 mph 5.2 mph 83 % 0.00 in 51.0 W/m2 OVC
17:47 58.5 °F 53.4 °F 29.87 in NNE 6.7 mph 10.4 mph 83 % 0.00 in 63.0 W/m2 OVC
17:52 58.1 °F 53.0 °F 29.87 in North 6.1 mph 8.1 mph 83 % 0.00 in 54.0 W/m2 OVC
17:57 57.8 °F 52.7 °F 29.86 in NNE 4.5 mph 8.1 mph 83 % 0.00 in 28.0 W/m2 OVC
18:02 57.3 °F 52.5 °F 29.86 in NE 3.4 mph 4.6 mph 84 % 0.00 in 23.0 W/m2 OVC
18:07 57.2 °F 52.4 °F 29.87 in NNE 2.8 mph 3.5 mph 84 % 0.00 in 42.0 W/m2 OVC
18:12 57.2 °F 52.7 °F 29.87 in NE 2.6 mph 3.5 mph 85 % 0.00 in 86.0 W/m2 BKN
18:17 57.3 °F 52.8 °F 29.87 in NNE 3.6 mph 4.6 mph 85 % 0.00 in 58.0 W/m2 OVC
18:22 57.3 °F 52.8 °F 29.88 in NNE 2.4 mph 3.5 mph 85 % 0.00 in 53.0 W/m2 OVC
18:27 57.2 °F 52.7 °F 29.87 in NNE 3.8 mph 6.0 mph 85 % 0.00 in 51.0 W/m2 BKN
18:32 57.2 °F 52.7 °F 29.88 in NE 2.7 mph 3.5 mph 85 % 0.00 in 25.0 W/m2 OVC
18:37 57.2 °F 52.7 °F 29.87 in ENE 2.1 mph 3.5 mph 85 % 0.00 in 42.0 W/m2 OVC
18:42 57.0 °F 52.5 °F 29.88 in ENE 2.1 mph 3.5 mph 85 % 0.00 in 33.0 W/m2 OVC
18:47 57.0 °F 52.9 °F 29.87 in ENE 2.3 mph 3.5 mph 86 % 0.00 in 32.0 W/m2 OVC
18:52 57.0 °F 52.9 °F 29.87 in NE 2.4 mph 3.5 mph 86 % 0.00 in 40.0 W/m2 BKN
19:02 56.9 °F 52.8 °F 29.87 in ENE 2.6 mph 3.5 mph 86 % 0.00 in 28.0 W/m2 BKN
19:07 56.9 °F 52.8 °F 29.88 in ENE 1.0 mph 2.3 mph 86 % 0.00 in 25.0 W/m2 BKN
19:12 56.8 °F 52.7 °F 29.88 in NE 2.6 mph 5.0 mph 86 % 0.00 in 14.0 W/m2 OVC
19:17 56.7 °F 52.6 °F 29.88 in NE 1.5 mph 3.5 mph 86 % 0.00 in 14.0 W/m2 OVC
19:22 56.7 °F 52.6 °F 29.88 in NE 1.2 mph 2.3 mph 86 % 0.00 in 9.0 W/m2 OVC
19:27 56.7 °F 52.6 °F 29.88 in NE 0.5 mph 1.2 mph 86 % 0.00 in 5.0 W/m2 OVC
19:32 56.6 °F 52.5 °F 29.89 in ENE 1.3 mph 3.0 mph 86 % 0.00 in 0.0 W/m2 OVC
19:37 56.6 °F 52.8 °F 29.88 in NE 1.1 mph 2.3 mph 87 % 0.00 in 0.0 W/m2 OVC
19:42 56.5 °F 52.7 °F 29.89 in NE 1.3 mph 2.3 mph 87 % 0.00 in 0.0 W/m2 OVC
19:47 56.4 °F 52.6 °F 29.89 in NE 2.3 mph 3.0 mph 87 % 0.00 in 0.0 W/m2 CLR
19:52 56.5 °F 52.7 °F 29.90 in NNE 1.8 mph 3.0 mph 87 % 0.00 in 0.0 W/m2 CLR
19:57 56.4 °F 52.6 °F 29.89 in NNE 1.4 mph 3.5 mph 87 % 0.00 in 0.0 W/m2 CLR
20:02 56.3 °F 52.5 °F 29.90 in Calm     87 % 0.00 in 0.0 W/m2 CLR
20:07 56.3 °F 52.5 °F 29.90 in NNE 2.1 mph 3.5 mph 87 % 0.00 in 0.0 W/m2 CLR
20:12 56.3 °F 52.5 °F 29.90 in Calm     87 % 0.00 in 0.0 W/m2 CLR
20:17 56.2 °F 52.4 °F 29.90 in NNE 1.0 mph 2.3 mph 87 % 0.00 in 0.0 W/m2 CLR
20:22 56.2 °F 52.7 °F 29.90 in NNE 0.3 mph 3.5 mph 88 % 0.00 in 0.0 W/m2 CLR
20:27 56.2 °F 52.7 °F 29.90 in Calm     88 % 0.00 in 0.0 W/m2 CLR
20:32 56.0 °F 52.5 °F 29.90 in Calm   1.2 mph 88 % 0.00 in 0.0 W/m2 CLR
20:37 55.9 °F 52.4 °F 29.90 in Calm     88 % 0.00 in 0.0 W/m2 CLR
20:42 55.8 °F 52.3 °F 29.90 in NNE 1.3 mph 2.3 mph 88 % 0.00 in 0.0 W/m2 CLR
20:47 55.8 °F 52.3 °F 29.90 in Calm     88 % 0.00 in 0.0 W/m2 CLR
20:52 55.8 °F 52.3 °F 29.90 in Calm     88 % 0.00 in 0.0 W/m2 CLR
20:57 55.7 °F 52.2 °F 29.90 in Calm     88 % 0.00 in 0.0 W/m2 CLR
21:02 55.7 °F 52.5 °F 29.90 in Calm     89 % 0.00 in 0.0 W/m2 CLR
21:07 55.8 °F 52.6 °F 29.90 in Calm     89 % 0.00 in 0.0 W/m2 CLR
21:17 55.7 °F 52.5 °F 29.90 in Calm     89 % 0.00 in 0.0 W/m2 CLR
21:22 55.6 °F 52.4 °F 29.90 in NNE 1.5 mph 2.3 mph 89 % 0.00 in 0.0 W/m2 CLR
21:27 55.6 °F 52.4 °F 29.90 in Calm     89 % 0.00 in 0.0 W/m2 CLR
21:32 55.5 °F 52.3 °F 29.90 in NNE 0.6 mph 2.3 mph 89 % 0.00 in 0.0 W/m2 CLR
21:37 55.5 °F 52.3 °F 29.91 in Calm     89 % 0.00 in 0.0 W/m2 CLR
21:42 55.6 °F 52.4 °F 29.91 in Calm     89 % 0.00 in 0.0 W/m2 CLR
21:47 55.6 °F 52.4 °F 29.91 in Calm     89 % 0.00 in 0.0 W/m2 CLR
21:52 55.5 °F 52.3 °F 29.91 in Calm     89 % 0.00 in 0.0 W/m2 CLR
21:57 55.5 °F 52.3 °F 29.91 in Calm   2.3 mph 89 % 0.00 in 0.0 W/m2 CLR
22:02 55.5 °F 52.3 °F 29.91 in Calm     89 % 0.00 in 0.0 W/m2 CLR
22:07 55.5 °F 52.3 °F 29.92 in NNE 0.1 mph 1.2 mph 89 % 0.00 in 0.0 W/m2 CLR
22:12 55.4 °F 52.2 °F 29.92 in NNE 0.6 mph 2.0 mph 89 % 0.00 in 0.0 W/m2 CLR
22:17 55.4 °F 52.2 °F 29.92 in Calm     89 % 0.00 in 0.0 W/m2 CLR
22:22 55.4 °F 52.5 °F 29.92 in Calm     90 % 0.00 in 0.0 W/m2 CLR
22:27 55.4 °F 52.5 °F 29.92 in NNE 0.4 mph 3.0 mph 90 % 0.00 in 0.0 W/m2 CLR
22:32 55.3 °F 52.4 °F 29.92 in NNE 0.6 mph 2.3 mph 90 % 0.00 in 0.0 W/m2 CLR
22:37 55.2 °F 52.3 °F 29.92 in Calm     90 % 0.00 in 0.0 W/m2 CLR
22:42 55.2 °F 52.3 °F 29.92 in Calm     90 % 0.00 in 0.0 W/m2 CLR
22:47 55.1 °F 52.2 °F 29.92 in Calm     90 % 0.00 in 0.0 W/m2 CLR
22:52 55.0 °F 52.4 °F 29.92 in NNE 0.8 mph 2.3 mph 91 % 0.00 in 0.0 W/m2 CLR
22:57 54.9 °F 52.3 °F 29.92 in NNE 0.3 mph 1.2 mph 91 % 0.00 in 0.0 W/m2 CLR
23:02 54.8 °F 52.2 °F 29.92 in NNE 1.2 mph 2.0 mph 91 % 0.00 in 0.0 W/m2 CLR
23:07 54.9 °F 52.3 °F 29.93 in Calm     91 % 0.00 in 0.0 W/m2 CLR
23:12 54.8 °F 52.2 °F 29.93 in Calm     91 % 0.00 in 0.0 W/m2 CLR
23:18 54.7 °F 52.4 °F 29.94 in NNE 1.5 mph 3.5 mph 92 % 0.00 in 0.0 W/m2 CLR
23:23 54.6 °F 52.3 °F 29.93 in Calm     92 % 0.00 in 0.0 W/m2 CLR
23:28 54.7 °F 52.4 °F 29.93 in Calm     92 % 0.00 in 0.0 W/m2 CLR
23:33 54.6 °F 52.3 °F 29.93 in Calm     92 % 0.00 in 0.0 W/m2 CLR
23:38 54.7 °F 52.4 °F 29.93 in NNE 2.3 mph 3.5 mph 92 % 0.00 in 0.0 W/m2 CLR
23:43 54.8 °F 52.5 °F 29.93 in NNE 2.8 mph 3.5 mph 92 % 0.00 in 0.0 W/m2 CLR
23:48 54.7 °F 52.4 °F 29.93 in NNE 3.0 mph 4.6 mph 92 % 0.00 in 0.0 W/m2 CLR
23:53 54.6 °F 52.3 °F 29.92 in NNE 2.9 mph 3.5 mph 92 % 0.00 in 0.0 W/m2 CLR
23:58 54.6 °F 52.6 °F 29.92 in NNE 3.2 mph 3.5 mph 93 % 0.00 in 0.0 W/m2 CLR
Air Products Campus Weather
Compliments of Weather Underground - 3.5 mb